Time;durP1;ratioP1;P1;durP2;ratioP2;P2;SDS_P1;SDS_P2;PMS_P1;PMS_P2;Temp;Humidity;BMP_temperature;BMP_pressure;BME280_temperature;BME280_humidity;BME280_pressure;Samples;Min_cycle;Max_cycle;Signal;HPM_P1;HPM_P2
2022/06/13 00:01:31;;;;;;;5.90;4.60;;;;;;;15.11;82.28;95688.75;1786986;80;21524;-64
2022/06/13 00:03:59;;;;;;;5.40;4.90;;;;;;;15.12;81.78;95691.84;1787179;80;21033;-64
2022/06/13 00:06:25;;;;;;;5.35;4.85;;;;;;;15.08;81.82;95687.53;1786929;80;21028;-64
2022/06/13 00:08:53;;;;;;;5.35;4.85;;;;;;;15.05;81.56;95681.01;1787223;80;20990;-64
2022/06/13 00:11:24;;;;;;;6.22;5.17;;;;;;;15.09;82.20;95678.63;1787114;80;21002;-64
2022/06/13 00:13:54;;;;;;;5.37;4.47;;;;;;;15.13;81.81;95683.79;1787129;80;20981;-64
2022/06/13 00:16:22;;;;;;;6.80;4.85;;;;;;;15.06;81.45;95677.41;1786894;80;20986;-64
2022/06/13 00:18:48;;;;;;;4.92;4.42;;;;;;;15.06;81.45;95677.41;1787151;80;21428;-64
2022/06/13 00:21:29;;;;;;;6.90;5.00;;;;;;;14.96;81.22;95675.53;1787212;80;21021;-64
2022/06/13 00:23:57;;;;;;;6.97;4.95;;;;;;;14.87;82.79;95677.20;1787323;80;20998;-64
2022/06/13 00:26:26;;;;;;;5.87;5.30;;;;;;;14.84;83.63;95668.88;1786948;80;20998;-64
2022/06/13 00:28:54;;;;;;;6.92;5.22;;;;;;;14.92;83.76;95673.92;1787179;80;21001;-64
2022/06/13 00:31:21;;;;;;;8.93;5.60;;;;;;;14.93;83.10;95674.31;1786992;80;21527;-64
2022/06/13 00:33:48;;;;;;;7.12;4.90;;;;;;;14.88;82.41;95671.81;1786970;80;21028;-64
2022/06/13 00:36:16;;;;;;;12.82;6.17;;;;;;;14.76;82.99;95666.91;1787301;80;21009;-64
2022/06/13 00:38:43;;;;;;;5.72;5.15;;;;;;;14.74;82.55;95669.21;1787007;80;21448;-64
2022/06/13 00:41:15;;;;;;;5.17;4.67;;;;;;;14.74;82.75;95670.54;1786913;80;21061;-64
2022/06/13 00:43:44;;;;;;;8.88;5.15;;;;;;;14.92;82.72;95667.28;1786801;80;21072;-64
2022/06/13 00:46:31;;;;;;;5.58;5.08;;;;;;;14.92;82.72;95667.28;1787172;80;20985;-64
2022/06/13 00:49:05;;;;;;;5.25;4.83;;;;;;;14.94;82.30;95661.42;1787009;80;20966;-64
2022/06/13 00:51:36;;;;;;;6.35;5.72;;;;;;;14.97;83.03;95661.34;1787165;80;20989;-64
2022/06/13 00:54:03;;;;;;;7.97;5.03;;;;;;;14.97;83.03;95661.34;1787313;80;20981;-65
2022/06/13 00:56:33;;;;;;;6.70;5.22;;;;;;;14.96;82.43;95660.06;1787192;80;21044;-64
2022/06/13 00:59:04;;;;;;;5.95;5.10;;;;;;;14.99;81.88;95662.13;1780226;80;21006;-64
2022/06/13 01:01:33;;;;;;;5.35;4.28;;;;;;;14.99;81.87;95654.63;1788322;80;20985;-64
2022/06/13 01:04:03;;;;;;;5.12;4.35;;;;;;;14.90;80.78;95651.84;1801125;80;20977;-64
2022/06/13 01:06:34;;;;;;;4.97;4.58;;;;;;;14.69;81.19;95645.45;1801166;80;21033;-64
2022/06/13 01:09:08;;;;;;;6.45;4.92;;;;;;;14.60;81.48;95651.10;1801162;80;21521;-64
2022/06/13 01:11:37;;;;;;;5.40;4.80;;;;;;;14.47;81.84;95649.28;1801254;80;21502;-65
2022/06/13 01:14:33;;;;;;;6.15;5.33;;;;;;;14.43;82.03;95656.92;1801211;80;20994;-64
2022/06/13 01:17:27;;;;;;;9.03;5.37;;;;;;;14.45;82.78;95648.45;1800655;80;20969;-64
2022/06/13 01:20:21;;;;;;;5.40;4.90;;;;;;;14.42;83.04;95647.23;1801081;80;21080;-64
2022/06/13 01:23:24;;;;;;;5.97;4.97;;;;;;;14.41;83.91;95643.72;1801003;80;21081;-64
2022/06/13 01:26:16;;;;;;;6.90;5.10;;;;;;;14.36;83.04;95646.09;1801121;80;21056;-64
2022/06/13 01:28:54;;;;;;;5.10;4.67;;;;;;;14.34;83.05;95647.48;1801027;80;20969;-64
2022/06/13 01:32:03;;;;;;;5.28;4.70;;;;;;;14.32;82.97;95636.05;1801044;80;21005;-64
2022/06/13 01:35:00;;;;;;;5.22;4.70;;;;;;;14.26;83.51;95646.84;1801452;80;20981;-64
2022/06/13 01:38:00;;;;;;;5.75;4.80;;;;;;;14.16;83.80;95634.79;1801091;80;21024;-64
2022/06/13 01:40:44;;;;;;;5.50;4.83;;;;;;;14.22;83.87;95635.94;1801312;80;21009;-64
2022/06/13 01:43:23;;;;;;;;;;;;;;;14.17;83.56;95632.09;1803848;80;21550;-64
2022/06/13 01:45:57;;;;;;;6.12;5.50;;;;;;;14.24;83.56;95627.01;1759804;80;20096;-64
2022/06/13 01:48:54;;;;;;;6.87;4.35;;;;;;;14.26;83.52;95629.59;1801103;80;21059;-64
2022/06/13 01:51:26;;;;;;;5.15;4.67;;;;;;;14.21;83.03;95632.86;1800922;80;21455;-64
2022/06/13 01:54:23;;;;;;;5.45;4.95;;;;;;;14.09;83.25;95635.93;1801220;80;20973;-64
2022/06/13 01:57:01;;;;;;;5.78;5.28;;;;;;;14.09;83.74;95629.30;1798890;80;21004;-64
2022/06/13 01:59:36;;;;;;;5.97;5.37;;;;;;;14.14;83.73;95632.20;1800669;80;21040;-64
2022/06/13 02:02:16;;;;;;;6.30;5.33;;;;;;;14.16;83.35;95624.17;1800513;80;21032;-64
2022/06/13 02:05:08;;;;;;;6.00;5.22;;;;;;;14.14;83.70;95619.41;1800969;80;21482;-64
2022/06/13 02:07:39;;;;;;;5.05;4.65;;;;;;;14.12;83.51;95622.55;1801377;80;20997;-64
2022/06/13 02:10:11;;;;;;;7.75;5.15;;;;;;;14.10;83.72;95621.27;1800845;80;21064;-64
2022/06/13 02:12:41;;;;;;;6.03;5.07;;;;;;;14.15;83.70;95619.33;1801242;80;21522;-64
2022/06/13 02:15:22;;;;;;;5.75;5.25;;;;;;;14.13;82.91;95616.32;1800740;80;21223;-64
2022/06/13 02:17:56;;;;;;;6.45;5.80;;;;;;;14.01;82.54;95615.81;1801177;80;21055;-65
2022/06/13 02:20:28;;;;;;;7.62;5.00;;;;;;;13.91;82.94;95616.13;1801082;80;21040;-64
2022/06/13 02:23:02;;;;;;;6.22;4.72;;;;;;;13.89;83.42;95615.33;1799474;80;20958;-64
2022/06/13 02:26:03;;;;;;;5.67;5.17;;;;;;;13.88;83.08;95614.90;1801250;80;21040;-64
2022/06/13 02:28:47;;;;;;;6.17;5.45;;;;;;;13.90;83.29;95617.05;1766231;81;20990;-64
2022/06/13 02:31:23;;;;;;;;;;;;;;;13.91;83.02;95616.13;1771932;81;21096;-64
2022/06/13 02:34:09;;;;;;;6.10;5.05;;;;;;;13.95;83.17;95615.98;1767544;81;20086;-64
2022/06/13 02:37:05;;;;;;;6.35;5.05;;;;;;;13.96;82.82;95620.83;1801345;80;21076;-64
2022/06/13 02:39:49;;;;;;;6.47;5.08;;;;;;;13.95;83.42;95621.75;1769618;81;21026;-64
2022/06/13 02:42:26;;;;;;;5.33;4.83;;;;;;;13.99;83.83;95614.98;1799625;80;21025;-64
2022/06/13 02:45:10;;;;;;;5.55;5.00;;;;;;;14.10;83.67;95615.96;1801002;80;21045;-64
2022/06/13 02:47:54;;;;;;;5.83;5.30;;;;;;;14.03;82.77;95619.72;1801034;80;21014;-64
2022/06/13 02:50:44;;;;;;;5.95;5.37;;;;;;;13.94;83.30;95615.59;1801248;80;20993;-64
2022/06/13 02:53:22;;;;;;;6.33;5.67;;;;;;;13.87;82.98;95619.34;1800937;80;21508;-64
2022/06/13 02:55:57;;;;;;;5.75;5.03;;;;;;;13.85;83.74;95606.58;1799702;80;21034;-64
2022/06/13 02:58:34;;;;;;;6.30;5.70;;;;;;;13.85;83.50;95610.56;1799891;80;21015;-64
2022/06/13 03:01:22;;;;;;;7.62;5.55;;;;;;;13.89;83.46;95603.39;1800986;80;21001;-64
2022/06/13 03:04:00;;;;;;;5.60;5.10;;;;;;;13.92;83.58;95602.83;1796327;80;21019;-64
2022/06/13 03:06:38;;;;;;;6.35;5.60;;;;;;;14.03;83.67;95610.44;1795188;80;21018;-64
2022/06/13 03:09:12;;;;;;;6.00;5.40;;;;;;;14.01;83.30;95607.85;1795414;80;20987;-64
2022/06/13 03:11:57;;;;;;;7.28;5.40;;;;;;;13.98;82.99;95617.20;1795611;80;20990;-64
2022/06/13 03:14:40;;;;;;;6.35;5.10;;;;;;;14.06;83.27;95614.31;1793838;80;21010;-64
2022/06/13 03:17:29;;;;;;;5.40;4.80;;;;;;;14.04;83.39;95612.19;1764550;80;21041;-64
2022/06/13 03:20:30;;;;;;;5.17;4.70;;;;;;;14.05;83.28;95616.56;1795501;80;21030;-64
2022/06/13 03:23:23;;;;;;;5.90;5.12;;;;;;;13.97;83.07;95611.50;1795566;80;21015;-64
2022/06/13 03:26:00;;;;;;;8.35;4.40;;;;;;;13.96;83.81;95608.45;1795775;80;21042;-64
2022/06/13 03:28:40;;;;;;;4.90;4.40;;;;;;;14.07;83.98;95616.06;1795362;80;21552;-64
2022/06/13 03:31:17;;;;;;;5.12;4.70;;;;;;;14.15;83.83;95610.05;1795077;80;21042;-64
2022/06/13 03:33:48;;;;;;;4.62;4.15;;;;;;;14.20;83.34;95610.77;1794863;80;21090;-64
2022/06/13 03:36:23;;;;;;;5.03;4.53;;;;;;;14.20;83.17;95613.41;1795361;80;21030;-64
2022/06/13 03:39:21;;;;;;;4.87;4.47;;;;;;;14.18;84.41;95606.42;1795576;80;20998;-64
2022/06/13 03:42:06;;;;;;;5.87;5.25;;;;;;;14.36;84.43;95616.89;1795281;80;20972;-64
2022/06/13 03:44:44;;;;;;;5.83;5.05;;;;;;;14.49;84.15;95611.61;1764558;80;20987;-64
2022/06/13 03:47:18;;;;;;;5.83;5.25;;;;;;;14.60;84.16;95605.49;1795240;80;21049;-64
2022/06/13 03:50:21;;;;;;;5.97;5.00;;;;;;;14.65;84.44;95609.33;1795594;80;20983;-64
2022/06/13 03:52:53;;;;;;;5.95;4.72;;;;;;;14.70;84.68;95611.36;1795664;80;20975;-64
2022/06/13 03:55:29;;;;;;;6.17;5.57;;;;;;;14.80;84.66;95609.26;1795136;80;21568;-64
2022/06/13 03:58:01;;;;;;;5.97;5.35;;;;;;;14.94;84.70;95614.94;1795192;80;21014;-64
2022/06/13 04:00:38;;;;;;;9.15;5.20;;;;;;;15.23;83.96;95609.91;1794912;80;21022;-64
2022/06/13 04:03:05;;;;;;;6.00;5.45;;;;;;;15.23;83.96;95609.91;1795038;80;21006;-64
2022/06/13 04:06:03;;;;;;;8.28;5.55;;;;;;;15.42;82.81;95602.58;1795317;80;20978;-64
2022/06/13 04:08:33;;;;;;;6.00;5.45;;;;;;;15.58;83.31;95615.25;1795393;80;21050;-64
2022/06/13 04:11:27;;;;;;;6.12;5.53;;;;;;;15.58;83.31;95615.25;1795219;80;21006;-64
2022/06/13 04:14:05;;;;;;;6.58;5.97;;;;;;;15.67;82.29;95612.69;1794310;80;20971;-64
2022/06/13 04:16:54;;;;;;;6.53;5.92;;;;;;;15.75;82.44;95611.13;1795416;80;21046;-64
2022/06/13 04:19:47;;;;;;;6.65;5.95;;;;;;;15.81;82.21;95610.87;1795081;80;21481;-64
2022/06/13 04:22:22;;;;;;;6.97;5.78;;;;;;;15.90;82.49;95609.20;1795836;80;21007;-64
2022/06/13 04:25:29;;;;;;;7.53;6.20;;;;;;;16.10;82.82;95607.52;1795219;80;21062;-64
2022/06/13 04:28:28;;;;;;;6.72;5.90;;;;;;;16.39;81.89;95599.69;1795600;80;21508;-64
2022/06/13 04:30:58;;;;;;;8.93;5.35;;;;;;;16.39;81.89;95599.69;1795744;80;20999;-64
2022/06/13 04:33:41;;;;;;;6.42;5.83;;;;;;;16.43;81.43;95602.17;1795472;80;20959;-64
2022/06/13 04:36:11;;;;;;;7.55;6.08;;;;;;;16.55;81.94;95607.42;1795571;80;21086;-65
2022/06/13 04:38:43;;;;;;;10.05;6.30;;;;;;;16.75;81.92;95607.92;1795494;80;21046;-64
2022/06/13 04:41:11;;;;;;;7.42;5.90;;;;;;;16.93;81.75;95603.63;1795663;80;21003;-65
2022/06/13 04:43:42;;;;;;;6.95;6.10;;;;;;;17.05;80.85;95607.57;1795682;80;21003;-64
2022/06/13 04:46:14;;;;;;;9.03;5.60;;;;;;;17.17;81.12;95603.51;1795455;80;21002;-64
2022/06/13 04:48:44;;;;;;;7.20;5.65;;;;;;;17.28;80.91;95602.55;1795518;80;21047;-64
2022/06/13 04:51:15;;;;;;;7.42;6.03;;;;;;;17.37;79.84;95599.95;1795543;80;20971;-65
2022/06/13 04:54:11;;;;;;;7.83;6.65;;;;;;;17.43;80.07;95607.19;1795633;80;21062;-64
2022/06/13 04:56:38;;;;;;;6.97;6.28;;;;;;;17.53;80.13;95606.30;1795691;80;21042;-65
2022/06/13 04:59:05;;;;;;;7.83;6.45;;;;;;;17.65;79.88;95607.08;1795570;80;21501;-64
2022/06/13 05:01:41;;;;;;;7.08;6.47;;;;;;;17.72;79.33;95607.67;1795373;80;20994;-65
2022/06/13 05:04:15;;;;;;;6.85;6.15;;;;;;;17.71;78.24;95605.48;1759802;81;21019;-65
2022/06/13 05:06:52;;;;;;;6.80;6.20;;;;;;;17.78;78.94;95606.04;1756019;82;20991;-64
2022/06/13 05:09:29;;;;;;;8.93;6.30;;;;;;;17.86;78.38;95603.05;1755539;82;21031;-64
2022/06/13 05:12:20;;;;;;;7.10;6.40;;;;;;;17.94;78.42;95595.53;1756064;81;21026;-65
2022/06/13 05:14:55;;;;;;;7.92;6.50;;;;;;;18.01;78.27;95591.63;1755761;82;21070;-64
2022/06/13 05:17:39;;;;;;;7.67;6.90;;;;;;;18.03;77.81;95590.23;1754706;82;21031;-64
2022/06/13 05:20:17;;;;;;;7.97;6.85;;;;;;;18.09;77.95;95588.59;1756086;81;21042;-65
2022/06/13 05:23:15;;;;;;;9.13;6.33;;;;;;;18.14;78.11;95590.57;1755297;82;21070;-64
2022/06/13 05:25:53;;;;;;;7.50;6.72;;;;;;;18.22;78.19;95589.75;1755905;81;21026;-64
2022/06/13 05:28:24;;;;;;;7.62;6.12;;;;;;;18.29;77.87;95585.81;1755881;81;21460;-65
2022/06/13 05:30:59;;;;;;;10.82;6.47;;;;;;;18.41;77.89;95581.69;1755988;82;21022;-65
2022/06/13 05:33:30;;;;;;;6.70;6.10;;;;;;;18.50;76.92;95579.05;1755223;82;21022;-65
2022/06/13 05:35:57;;;;;;;6.53;6.00;;;;;;;18.57;76.92;95582.67;1755942;82;21038;-65
2022/06/13 05:38:37;;;;;;;5.95;5.45;;;;;;;18.68;76.05;95579.92;1751928;81;21054;-65
2022/06/13 05:41:03;;;;;;;5.60;5.03;;;;;;;18.81;76.06;95581.05;1726758;82;21018;-64
2022/06/13 05:43:30;;;;;;;6.10;5.60;;;;;;;18.96;75.31;95580.73;1756001;81;21015;-65
2022/06/13 05:45:58;;;;;;;7.87;4.97;;;;;;;19.11;75.66;95575.92;1755875;82;21002;-65
2022/06/13 05:48:25;;;;;;;7.05;5.60;;;;;;;19.25;74.25;95569.83;1755597;81;21078;-65
2022/06/13 05:50:52;;;;;;;7.08;5.28;;;;;;;19.38;74.47;95576.28;1755967;81;20994;-64
2022/06/13 05:53:22;;;;;;;7.35;5.30;;;;;;;19.52;71.38;95575.52;1756175;81;21011;-64
2022/06/13 05:55:50;;;;;;;6.60;5.65;;;;;;;19.60;70.15;95572.42;1756063;81;21097;-65
2022/06/13 05:58:19;;;;;;;7.08;4.90;;;;;;;19.72;71.23;95566.44;1755662;82;20987;-64
2022/06/13 06:00:53;;;;;;;6.47;5.40;;;;;;;19.91;71.76;95567.63;1755976;81;21078;-65
2022/06/13 06:03:20;;;;;;;6.20;5.25;;;;;;;20.12;71.11;95568.71;1757460;81;21077;-65
2022/06/13 06:05:48;;;;;;;6.00;5.50;;;;;;;20.26;70.66;95567.42;1762771;81;21030;-65
2022/06/13 06:08:35;;;;;;;5.92;5.53;;;;;;;20.37;69.86;95567.69;1762637;81;21058;-65
2022/06/13 06:11:01;;;;;;;5.70;5.20;;;;;;;20.50;70.34;95572.72;1762234;81;21094;-65
2022/06/13 06:13:30;;;;;;;6.28;5.67;;;;;;;20.60;69.75;95570.41;1762619;81;21480;-65
2022/06/13 06:16:00;;;;;;;6.58;5.87;;;;;;;20.69;70.09;95564.52;1762521;81;21038;-65
2022/06/13 06:18:29;;;;;;;6.80;6.20;;;;;;;20.81;70.14;95563.39;1762314;81;21042;-65
2022/06/13 06:20:57;;;;;;;7.03;5.85;;;;;;;20.94;70.56;95561.23;1762570;81;21007;-65
2022/06/13 06:23:24;;;;;;;6.97;6.30;;;;;;;21.09;69.85;95566.16;1728652;81;21026;-65
2022/06/13 06:25:50;;;;;;;8.08;6.42;;;;;;;21.13;68.59;95561.45;1762683;81;20987;-65
2022/06/13 06:28:22;;;;;;;7.25;6.55;;;;;;;21.18;69.07;95564.23;1762278;81;21019;-65
2022/06/13 06:30:52;;;;;;;7.37;6.58;;;;;;;21.32;69.33;95558.53;1762252;81;20987;-65
2022/06/13 06:33:20;;;;;;;6.90;6.30;;;;;;;21.46;68.68;95553.18;1762671;81;21069;-65
2022/06/13 06:35:48;;;;;;;6.42;5.85;;;;;;;21.55;68.48;95556.64;1762605;81;21519;-65
2022/06/13 06:38:16;;;;;;;7.75;6.17;;;;;;;21.67;67.25;95546.96;1762449;81;21503;-65
2022/06/13 06:40:42;;;;;;;7.08;6.12;;;;;;;21.76;67.24;95554.41;1762686;81;21460;-65
2022/06/13 06:43:09;;;;;;;6.97;6.37;;;;;;;21.78;65.58;95553.84;1762648;81;21011;-65
2022/06/13 06:45:38;;;;;;;6.55;5.95;;;;;;;21.80;66.38;95553.27;1762719;81;21073;-64
2022/06/13 06:48:06;;;;;;;7.35;6.30;;;;;;;21.89;66.70;95551.81;1762518;81;20979;-65
2022/06/13 06:50:35;;;;;;;8.78;5.80;;;;;;;22.05;66.90;95551.70;1762619;81;21025;-65
2022/06/13 06:53:02;;;;;;;6.62;6.03;;;;;;;22.12;66.33;95551.66;1762157;81;21129;-65
2022/06/13 07:01:05;;;;;;;6.50;5.87;;;;;;;22.52;66.25;95549.56;1762500;81;20970;-65
2022/06/13 07:03:32;;;;;;;6.70;6.10;;;;;;;22.59;65.42;95550.41;1763115;81;21034;-65
2022/06/13 07:05:58;;;;;;;6.58;5.97;;;;;;;22.64;64.22;95547.41;1766535;81;21030;-65
2022/06/13 07:08:27;;;;;;;6.83;6.22;;;;;;;22.69;64.21;95549.30;1766275;81;20998;-65
2022/06/13 07:11:53;;;;;;;7.45;5.80;;;;;;;22.79;64.21;95547.72;1766287;81;21484;-65
2022/06/13 07:13:23;;;;;;;6.65;6.08;;;;;;;22.88;63.86;95540.83;1761817;81;21057;-65
2022/06/13 07:15:50;;;;;;;6.80;6.10;;;;;;;22.97;63.70;95543.40;1766438;81;21480;-65
2022/06/13 07:18:17;;;;;;;6.17;5.67;;;;;;;23.11;63.49;95546.90;1766254;81;20983;-65
2022/06/13 07:20:44;;;;;;;6.72;5.78;;;;;;;23.22;62.97;95546.64;1766347;81;21025;-65
2022/06/13 07:23:11;;;;;;;6.78;6.10;;;;;;;23.30;62.38;95543.77;1766350;81;21479;-65
2022/06/13 07:25:38;;;;;;;7.40;6.30;;;;;;;23.33;63.29;95541.35;1766519;81;21054;-65
2022/06/13 07:28:04;;;;;;;6.00;5.40;;;;;;;23.41;62.99;95536.31;1766203;81;21446;-65
2022/06/13 07:30:32;;;;;;;6.12;5.53;;;;;;;23.47;62.95;95538.56;1766553;81;21053;-65
2022/06/13 07:32:59;;;;;;;6.47;5.90;;;;;;;23.58;63.04;95535.10;1766284;81;21412;-65
2022/06/13 07:35:26;;;;;;;6.47;5.90;;;;;;;23.75;62.50;95533.44;1766450;81;21032;-65
2022/06/13 07:40:38;;;;;;;6.35;5.75;;;;;;;23.96;62.56;95531.52;1766375;81;21058;-65
2022/06/13 07:43:09;;;;;;;6.45;5.35;;;;;;;24.10;60.28;95525.13;1766069;81;20994;-65
2022/06/13 07:45:42;;;;;;;6.12;5.62;;;;;;;24.10;57.92;95525.13;1766287;81;21042;-65
2022/06/13 07:48:07;;;;;;;6.22;5.62;;;;;;;24.18;58.18;95528.97;1764915;80;21783;-65
2022/06/13 07:50:34;;;;;;;8.00;6.62;;;;;;;24.27;57.02;95522.06;1736505;81;21054;-65
2022/06/13 07:53:01;;;;;;;5.60;5.20;;;;;;;24.35;56.23;95528.23;1766584;81;21094;-65
2022/06/13 07:55:30;;;;;;;7.05;5.87;;;;;;;24.54;57.60;95527.73;1766340;81;21014;-65
2022/06/13 07:57:57;;;;;;;6.37;5.80;;;;;;;24.69;56.85;95521.17;1766328;81;21014;-65
2022/06/13 08:00:30;;;;;;;6.90;5.55;;;;;;;24.80;57.08;95523.94;1766213;81;21504;-65
2022/06/13 08:02:57;;;;;;;6.22;5.62;;;;;;;24.93;55.61;95512.20;1764993;81;21065;-65
2022/06/13 08:05:24;;;;;;;7.60;5.80;;;;;;;25.13;56.32;95510.66;1766290;81;21026;-65
2022/06/13 08:07:50;;;;;;;6.35;5.62;;;;;;;25.28;55.59;95510.84;1766369;81;21464;-65
2022/06/13 08:10:17;;;;;;;7.20;5.70;;;;;;;25.31;53.30;95512.45;1765869;81;21046;-65
2022/06/13 08:12:45;;;;;;;5.85;5.45;;;;;;;25.33;55.29;95516.75;1766394;81;20993;-65
2022/06/13 08:15:13;;;;;;;6.40;5.12;;;;;;;25.44;55.34;95507.30;1766438;81;20994;-65
2022/06/13 08:17:40;;;;;;;6.12;5.40;;;;;;;25.60;55.22;95505.61;1766040;81;21061;-65
2022/06/13 08:20:09;;;;;;;6.67;5.55;;;;;;;25.81;54.57;95504.87;1765982;81;21046;-65
2022/06/13 08:22:48;;;;;;;6.10;5.60;;;;;;;25.92;54.33;95498.62;1766293;81;21006;-65
2022/06/13 08:25:28;;;;;;;6.58;5.97;;;;;;;25.94;53.96;95505.62;1766221;81;21491;-65
2022/06/13 08:27:57;;;;;;;6.85;5.70;;;;;;;26.08;53.99;95498.60;1766406;81;21010;-65
2022/06/13 08:30:28;;;;;;;6.05;5.45;;;;;;;26.24;53.98;95498.69;1766247;81;21094;-65
2022/06/13 08:32:55;;;;;;;5.97;5.47;;;;;;;26.29;53.48;95499.17;1766007;81;21046;-65
2022/06/13 08:35:22;;;;;;;6.28;5.00;;;;;;;26.19;52.43;95499.06;1766419;81;21018;-65
2022/06/13 08:37:48;;;;;;;5.67;5.17;;;;;;;26.30;53.28;95503.58;1766129;81;21537;-65
2022/06/13 08:40:15;;;;;;;6.33;5.08;;;;;;;26.34;53.29;95495.59;1766119;81;21022;-65
2022/06/13 08:43:16;;;;;;;6.12;5.62;;;;;;;26.24;50.59;95496.84;1766363;81;21017;-65
2022/06/13 08:45:47;;;;;;;8.05;5.90;;;;;;;25.95;51.02;95499.71;1766245;81;21049;-65
2022/06/13 08:48:22;;;;;;;6.97;6.20;;;;;;;25.71;51.97;95499.84;1766240;81;21070;-65
2022/06/13 08:50:57;;;;;;;6.58;5.90;;;;;;;25.48;52.67;95503.87;1765938;81;21085;-65
2022/06/13 08:53:28;;;;;;;6.60;5.97;;;;;;;25.36;53.43;95496.24;1765964;81;21038;-65
2022/06/13 08:56:11;;;;;;;6.83;6.28;;;;;;;25.25;54.63;95498.45;1766308;81;21448;-65
2022/06/13 08:58:58;;;;;;;5.95;5.53;;;;;;;25.18;55.09;95499.05;1766505;81;20986;-65
2022/06/13 09:01:35;;;;;;;7.10;6.40;;;;;;;25.08;55.38;95502.92;1766349;81;21010;-65
2022/06/13 09:04:18;;;;;;;8.58;6.47;;;;;;;24.93;55.00;95499.56;1765040;81;21110;-65
2022/06/13 09:06:54;;;;;;;10.08;6.60;;;;;;;24.80;55.18;95502.84;1749731;81;21019;-65
2022/06/13 09:09:26;;;;;;;6.90;6.20;;;;;;;24.68;55.69;95497.03;1758417;81;21018;-65
2022/06/13 09:12:01;;;;;;;7.28;6.58;;;;;;;24.59;56.40;95498.11;1762053;81;21002;-65
2022/06/13 09:14:38;;;;;;;6.95;6.30;;;;;;;24.54;56.63;95502.11;1762594;81;21507;-65
2022/06/13 09:17:15;;;;;;;7.80;6.28;;;;;;;24.46;56.58;95495.94;1762609;81;21038;-65
2022/06/13 09:20:02;;;;;;;7.65;6.12;;;;;;;24.39;57.03;95498.69;1759847;81;21503;-65
2022/06/13 09:22:54;;;;;;;7.15;6.47;;;;;;;24.52;57.01;95492.80;1762466;81;21496;-65
2022/06/13 09:25:45;;;;;;;6.80;6.20;;;;;;;24.68;56.17;95490.28;1757430;81;21071;-65
2022/06/13 09:28:45;;;;;;;9.43;6.08;;;;;;;24.60;56.89;95493.56;1762637;81;21013;-65
2022/06/13 09:31:17;;;;;;;6.37;5.78;;;;;;;24.48;55.99;95488.60;1762606;81;20975;-65
2022/06/13 09:33:57;;;;;;;7.70;6.40;;;;;;;24.85;56.83;95485.81;1761389;81;20995;-65
2022/06/13 09:36:34;;;;;;;6.33;5.72;;;;;;;25.08;55.06;95484.52;1762431;81;21468;-65
2022/06/13 09:39:06;;;;;;;6.12;5.37;;;;;;;25.30;55.24;95481.89;1762694;81;21018;-65
2022/06/13 09:42:11;;;;;;;5.92;5.20;;;;;;;25.75;52.27;95483.72;1762649;81;21030;-65
2022/06/13 09:45:08;;;;;;;6.35;5.75;;;;;;;25.81;51.84;95495.41;1762577;81;21059;-65
2022/06/13 09:47:55;;;;;;;6.00;5.37;;;;;;;25.89;52.37;95483.01;1761832;81;21026;-65
2022/06/13 09:50:43;;;;;;;5.62;4.92;;;;;;;26.22;50.24;95478.52;1762687;81;21493;-65
2022/06/13 09:53:19;;;;;;;5.58;5.17;;;;;;;26.14;49.82;95480.16;1762374;81;21031;-65
2022/06/13 09:55:54;;;;;;;6.12;5.65;;;;;;;26.25;47.89;95485.52;1762672;81;21010;-65
2022/06/13 09:58:58;;;;;;;6.83;6.30;;;;;;;26.68;51.56;95481.96;1762481;81;21098;-65
2022/06/13 10:01:45;;;;;;;6.97;6.28;;;;;;;26.89;49.66;95488.78;1762687;81;21010;-65
2022/06/13 10:04:41;;;;;;;8.18;6.20;;;;;;;27.13;48.05;95481.23;1763040;81;22237;-65
2022/06/13 10:07:22;;;;;;;5.80;5.20;;;;;;;27.09;46.03;95481.63;1766439;81;21030;-65
2022/06/13 10:10:17;;;;;;;8.38;5.30;;;;;;;27.40;48.91;95470.39;1765933;81;21089;-65
2022/06/13 10:13:01;;;;;;;5.90;5.40;;;;;;;27.53;44.56;95464.74;1766108;81;21568;-65
2022/06/13 10:15:55;;;;;;;5.90;5.37;;;;;;;27.66;46.37;95457.23;1766136;81;21064;-65
2022/06/13 10:18:47;;;;;;;6.33;5.58;;;;;;;27.76;44.56;95446.43;1766069;81;20999;-65
2022/06/13 10:21:25;;;;;;;5.53;5.07;;;;;;;27.72;46.51;95443.63;1766485;81;21532;-65
2022/06/13 10:24:15;;;;;;;5.70;4.60;;;;;;;27.91;45.70;95453.22;1746558;81;21082;-65
2022/06/13 10:27:10;;;;;;;7.28;4.47;;;;;;;28.09;44.87;95453.41;1766504;81;21022;-65
2022/06/13 10:30:23;;;;;;;6.22;4.80;;;;;;;28.13;42.20;95451.30;1766354;81;21062;-65
2022/06/13 10:33:07;;;;;;;6.60;4.80;;;;;;;28.14;42.87;95456.56;1766647;81;20994;-65
2022/06/13 10:35:55;;;;;;;6.65;4.90;;;;;;;28.32;44.39;95453.17;1766292;81;21563;-65
2022/06/13 10:38:32;;;;;;;8.80;4.67;;;;;;;28.56;42.93;95452.30;1766302;81;20994;-65
2022/06/13 10:40:59;;;;;;;5.47;4.85;;;;;;;28.64;41.80;95456.52;1754106;81;21555;-65
2022/06/13 10:43:27;;;;;;;5.58;5.00;;;;;;;28.77;42.11;95455.38;1766308;81;21496;-65
2022/06/13 10:45:54;;;;;;;4.83;4.28;;;;;;;28.73;43.20;95451.22;1766252;81;21495;-65
2022/06/13 10:48:31;;;;;;;4.97;4.47;;;;;;;28.83;42.39;95448.03;1766281;81;20987;-65
2022/06/13 10:51:02;;;;;;;5.35;4.10;;;;;;;28.89;41.03;95444.72;1766207;81;21038;-65
2022/06/13 10:53:43;;;;;;;4.45;4.00;;;;;;;28.88;39.13;95443.02;1766526;81;21005;-65
2022/06/13 10:56:18;;;;;;;7.03;4.37;;;;;;;28.73;39.02;95439.00;1766249;81;21464;-65
2022/06/13 10:58:52;;;;;;;4.62;4.25;;;;;;;28.88;40.72;95438.95;1766374;81;21533;-65
2022/06/13 11:01:30;;;;;;;3.55;3.27;;;;;;;29.02;39.48;95440.34;1766272;81;21001;-65
2022/06/13 11:04:04;;;;;;;3.87;3.42;;;;;;;29.05;35.05;95423.75;1766413;81;21002;-65
2022/06/13 11:06:42;;;;;;;4.05;3.70;;;;;;;28.69;36.65;95437.09;1766147;81;20998;-65
2022/06/13 11:09:39;;;;;;;4.67;3.87;;;;;;;28.55;36.03;95427.53;1766510;81;21015;-65
2022/06/13 11:12:29;;;;;;;4.08;3.65;;;;;;;28.85;36.85;95439.21;1759386;81;21050;-65
2022/06/13 11:23:54;;;;;;;3.47;3.27;;;;;;;29.27;35.61;95437.03;1766481;81;21006;-65
2022/06/13 11:29:15;;;;;;;3.35;3.00;;;;;;;29.57;33.46;95441.03;1766256;81;21007;-65
2022/06/13 11:31:57;;;;;;;3.30;3.00;;;;;;;29.84;34.96;95433.44;1765803;81;21054;-65
2022/06/13 11:34:37;;;;;;;4.60;3.40;;;;;;;30.02;34.37;95429.41;1765944;81;21015;-65
2022/06/13 11:37:09;;;;;;;4.87;3.42;;;;;;;30.12;35.17;95424.25;1766376;81;20991;-65
2022/06/13 11:39:41;;;;;;;4.95;3.00;;;;;;;30.11;35.59;95410.78;1764982;81;21512;-65
2022/06/13 11:42:25;;;;;;;3.52;3.22;;;;;;;30.06;33.77;95421.27;1766391;81;21508;-65
2022/06/13 11:45:02;;;;;;;3.50;3.25;;;;;;;30.08;34.64;95413.30;1766465;81;21046;-65
2022/06/13 11:47:49;;;;;;;6.85;3.72;;;;;;;30.05;34.02;95411.41;1766160;81;21508;-65
2022/06/13 11:50:26;;;;;;;4.47;3.27;;;;;;;29.84;32.42;95415.25;1766304;81;21051;-65
2022/06/13 11:55:56;;;;;;;3.73;3.37;;;;;;;29.95;34.34;95412.83;1766441;81;21492;-65
2022/06/13 11:58:29;;;;;;;5.60;3.42;;;;;;;29.74;35.29;95409.86;1764783;81;21029;-65
2022/06/13 12:01:13;;;;;;;3.67;3.33;;;;;;;29.82;33.79;95413.69;1766008;81;21397;-65
2022/06/13 12:03:48;;;;;;;3.60;3.02;;;;;;;29.77;32.35;95414.14;1766260;81;21018;-65
2022/06/13 12:06:18;;;;;;;3.62;3.33;;;;;;;29.91;34.30;95423.16;1763361;81;21520;-65
2022/06/13 12:08:50;;;;;;;4.83;3.05;;;;;;;30.26;33.80;95422.04;1762559;81;21507;-65
2022/06/13 12:11:21;;;;;;;3.77;3.47;;;;;;;30.53;31.85;95424.70;1762636;81;21029;-65
2022/06/13 12:13:50;;;;;;;4.03;2.90;;;;;;;30.79;31.98;95430.72;1762525;81;21544;-65
2022/06/13 12:16:32;;;;;;;4.75;3.02;;;;;;;31.01;31.97;95423.45;1762289;81;21098;-65
2022/06/13 12:19:09;;;;;;;4.50;3.20;;;;;;;31.20;31.37;95405.22;1762952;81;21026;-65
2022/06/13 12:21:53;;;;;;;4.50;2.80;;;;;;;31.57;30.28;95405.45;1762639;81;21038;-65
2022/06/13 12:24:51;;;;;;;4.35;2.90;;;;;;;31.75;29.87;95407.58;1762334;81;21023;-65
2022/06/13 12:27:52;;;;;;;3.10;2.80;;;;;;;32.18;30.60;95408.48;1762565;81;21026;-65
2022/06/13 12:30:53;;;;;;;3.33;2.80;;;;;;;32.36;28.49;95399.28;1762661;81;21034;-65
2022/06/13 12:33:46;;;;;;;3.42;2.83;;;;;;;32.99;30.12;95406.91;1762679;81;21019;-65
2022/06/13 12:36:36;;;;;;;4.00;2.80;;;;;;;33.58;28.08;95400.72;1761888;81;21067;-65
2022/06/13 12:39:23;;;;;;;4.45;2.67;;;;;;;34.09;27.52;95393.53;1762337;81;20995;-65
2022/06/13 12:42:37;;;;;;;3.00;2.70;;;;;;;34.36;26.06;95388.09;1762556;81;21492;-65
2022/06/13 12:45:51;;;;;;;4.08;2.58;;;;;;;34.48;26.14;95396.23;1762934;81;21053;-65